createdAt,value
2019-03-12T00:01:53.968Z,3.27
2019-03-12T00:04:23.267Z,2.87
2019-03-12T00:06:58.467Z,3.07
2019-03-12T00:09:29.050Z,2.62
2019-03-12T00:12:10.835Z,2.67
2019-03-12T00:14:42.848Z,3.55
2019-03-12T00:17:13.559Z,2.92
2019-03-12T00:19:45.915Z,3.37
2019-03-12T00:22:17.815Z,2.90
2019-03-12T00:24:59.745Z,3.17
2019-03-12T00:27:43.301Z,3.67
2019-03-12T00:30:16.894Z,3.42
2019-03-12T00:32:51.141Z,3.33
2019-03-12T00:35:23.819Z,3.10
2019-03-12T00:37:56.683Z,3.10
2019-03-12T00:40:32.382Z,3.73
2019-03-12T00:43:03.558Z,3.96
2019-03-12T00:45:35.351Z,4.20
2019-03-12T00:48:07.083Z,4.00
2019-03-12T00:50:40.590Z,3.97
2019-03-12T00:53:13.732Z,3.98
2019-03-12T00:55:47.931Z,4.20
2019-03-12T00:59:10.248Z,4.10
2019-03-12T01:00:52.076Z,4.30
2019-03-12T01:03:22.704Z,4.40
2019-03-12T01:05:53.236Z,4.15
2019-03-12T01:08:52.397Z,4.60
2019-03-12T01:11:30.003Z,3.60
2019-03-12T01:14:02.236Z,4.83
2019-03-12T01:16:37.142Z,3.86
2019-03-12T01:19:07.438Z,4.97
2019-03-12T01:21:45.811Z,4.50
2019-03-12T01:24:21.328Z,4.97
2019-03-12T01:26:51.611Z,4.08
2019-03-12T01:29:23.909Z,4.67
2019-03-12T01:31:54.575Z,4.20
2019-03-12T01:34:46.815Z,3.63
2019-03-12T01:37:10.187Z,4.00
2019-03-12T01:39:40.490Z,4.27
2019-03-12T01:42:45.633Z,4.00
2019-03-12T01:44:50.582Z,4.00
2019-03-12T01:47:23.745Z,4.37
2019-03-12T01:49:57.365Z,3.90
2019-03-12T01:52:29.297Z,4.33
2019-03-12T01:55:02.332Z,3.53
2019-03-12T01:57:32.573Z,4.10
2019-03-12T02:00:04.155Z,4.10
2019-03-12T02:02:34.726Z,4.37
2019-03-12T02:05:08.003Z,4.30
2019-03-12T02:07:38.291Z,3.77
2019-03-12T02:10:13.271Z,4.40
2019-03-12T02:12:45.185Z,4.83
2019-03-12T02:15:15.556Z,4.00
2019-03-12T02:17:46.040Z,4.47
2019-03-12T02:20:17.009Z,4.03
2019-03-12T02:23:04.184Z,4.03
2019-03-12T02:25:32.212Z,4.20
2019-03-12T02:28:02.574Z,4.40
2019-03-12T02:31:13.628Z,4.77
2019-03-12T02:33:15.950Z,4.67
2019-03-12T02:36:03.921Z,5.50
2019-03-12T02:38:27.139Z,4.60
2019-03-12T02:40:57.712Z,4.85
2019-03-12T02:43:34.572Z,4.70
2019-03-12T02:46:03.829Z,5.03
2019-03-12T02:48:39.233Z,5.10
2019-03-12T02:51:11.040Z,5.00
2019-03-12T02:53:44.378Z,5.13
2019-03-12T02:56:14.910Z,4.83
2019-03-12T02:58:45.170Z,5.23
2019-03-12T03:01:18.653Z,4.37
2019-03-12T03:03:50.723Z,5.00
2019-03-12T03:06:39.368Z,4.55
2019-03-12T03:09:19.089Z,4.97
2019-03-12T03:11:51.501Z,4.63
2019-03-12T03:14:38.032Z,4.20
2019-03-12T03:17:13.605Z,4.60
2019-03-12T03:19:53.811Z,4.00
2019-03-12T03:22:30.553Z,4.20
2019-03-12T03:25:00.715Z,3.50
2019-03-12T03:27:39.428Z,4.10
2019-03-12T03:30:13.854Z,3.63
2019-03-12T03:32:44.455Z,3.57
2019-03-12T03:35:23.168Z,3.43
2019-03-12T03:37:53.854Z,3.40
2019-03-12T03:40:39.994Z,3.63
2019-03-12T03:43:05.821Z,3.22
2019-03-12T03:45:40.093Z,3.20
2019-03-12T03:48:16.928Z,3.53
2019-03-12T03:50:49.383Z,4.15
2019-03-12T03:53:21.571Z,3.40
2019-03-12T03:55:52.504Z,3.02
2019-03-12T03:58:36.913Z,3.80
2019-03-12T04:01:10.937Z,3.45
2019-03-12T04:03:42.863Z,3.00
2019-03-12T04:06:18.517Z,3.37
2019-03-12T04:08:50.487Z,3.73
2019-03-12T04:11:30.285Z,3.30
2019-03-12T04:14:02.683Z,3.27
2019-03-12T04:16:32.973Z,2.97
2019-03-12T04:19:07.263Z,3.47
2019-03-12T04:21:36.535Z,3.98
2019-03-12T04:24:12.069Z,2.97
2019-03-12T04:26:42.428Z,3.10
2019-03-12T04:29:13.932Z,3.57
2019-03-12T04:31:44.571Z,3.50
2019-03-12T04:34:38.017Z,3.10
2019-03-12T04:37:10.695Z,3.40
2019-03-12T04:39:43.150Z,2.95
2019-03-12T04:42:15.517Z,3.00
2019-03-12T04:44:53.058Z,2.80
2019-03-12T04:47:23.390Z,3.00
2019-03-12T04:50:14.289Z,2.76
2019-03-12T04:52:58.851Z,2.67
2019-03-12T04:55:29.430Z,3.50
2019-03-12T04:58:08.344Z,2.77
2019-03-12T05:00:38.649Z,3.23
2019-03-12T05:03:26.864Z,2.82
2019-03-12T05:06:00.246Z,3.43
2019-03-12T05:08:30.760Z,2.60
2019-03-12T05:11:03.706Z,2.83
2019-03-12T05:13:33.948Z,3.00
2019-03-12T05:16:13.564Z,3.10
2019-03-12T05:18:48.753Z,3.10
2019-03-12T05:21:19.693Z,2.87
2019-03-12T05:24:17.180Z,2.87
2019-03-12T05:26:23.885Z,2.75
2019-03-12T05:28:56.238Z,2.80
2019-03-12T05:31:28.962Z,2.50
2019-03-12T05:33:59.361Z,2.50
2019-03-12T05:36:36.051Z,3.00
2019-03-12T05:39:07.601Z,3.17
2019-03-12T05:41:44.686Z,2.67
2019-03-12T05:44:16.550Z,2.70
2019-03-12T05:46:54.474Z,2.33
2019-03-12T05:49:31.351Z,2.60
2019-03-12T05:52:01.641Z,2.97
2019-03-12T05:54:31.924Z,2.93
2019-03-12T05:57:04.863Z,2.90
2019-03-12T05:59:36.277Z,2.40
2019-03-12T06:02:06.533Z,3.07
2019-03-12T06:04:36.859Z,2.67
2019-03-12T06:07:08.296Z,3.87
2019-03-12T06:09:43.761Z,3.00
2019-03-12T06:12:14.297Z,2.80
2019-03-12T06:14:48.415Z,2.80
2019-03-12T06:17:22.346Z,3.10
2019-03-12T06:19:54.309Z,2.47
2019-03-12T06:22:28.251Z,2.30
2019-03-12T06:25:02.771Z,2.80
2019-03-12T06:27:50.425Z,3.10
2019-03-12T06:30:25.675Z,2.58
2019-03-12T06:35:46.412Z,2.55
2019-03-12T06:38:48.234Z,2.50
2019-03-12T06:41:34.406Z,2.93
2019-03-12T06:44:40.789Z,2.95
2019-03-12T06:47:31.816Z,2.70
2019-03-12T06:50:22.628Z,3.10
2019-03-12T06:53:38.174Z,2.70
2019-03-12T06:56:52.611Z,2.40
2019-03-12T06:59:46.406Z,2.53
2019-03-12T07:02:34.635Z,2.57
2019-03-12T07:05:23.745Z,2.50
2019-03-12T07:08:16.344Z,3.00
2019-03-12T07:11:04.221Z,2.77
2019-03-12T07:13:58.656Z,2.73
2019-03-12T07:16:46.733Z,2.67
2019-03-12T07:19:35.956Z,3.40
2019-03-12T07:22:14.987Z,3.33
2019-03-12T07:24:55.596Z,3.50
2019-03-12T07:27:38.057Z,3.58
2019-03-12T07:30:40.960Z,2.74
2019-03-12T07:33:25.699Z,3.84
2019-03-12T07:36:21.029Z,2.93
2019-03-12T07:39:08.592Z,2.97
2019-03-12T07:42:09.748Z,2.93
2019-03-12T07:45:05.775Z,3.33
2019-03-12T07:47:46.497Z,3.07
2019-03-12T07:50:26.426Z,3.13
2019-03-12T07:53:30.644Z,3.10
2019-03-12T07:56:24.278Z,2.97
2019-03-12T07:59:09.910Z,3.40
2019-03-12T08:01:54.352Z,2.83
2019-03-12T08:04:53.017Z,2.97
2019-03-12T08:07:57.207Z,2.43
2019-03-12T08:10:34.512Z,2.77
2019-03-12T08:15:58.803Z,2.60
2019-03-12T08:18:54.290Z,2.60
2019-03-12T08:21:55.880Z,2.77
2019-03-12T08:24:33.341Z,3.23
2019-03-12T08:27:14.714Z,2.55
2019-03-12T08:30:04.011Z,3.00
2019-03-12T08:32:59.779Z,2.58
2019-03-12T08:35:46.373Z,2.93
2019-03-12T08:38:35.933Z,2.80
2019-03-12T08:41:11.245Z,2.33
2019-03-12T08:44:06.412Z,2.43
2019-03-12T08:46:57.530Z,2.70
2019-03-12T08:49:44.796Z,2.20
2019-03-12T08:52:37.776Z,2.47
2019-03-12T08:55:40.130Z,2.43
2019-03-12T08:58:37.201Z,2.10
2019-03-12T09:01:25.212Z,2.73
2019-03-12T09:04:12.624Z,2.30
2019-03-12T09:07:06.784Z,2.60
2019-03-12T09:09:51.622Z,2.64
2019-03-12T09:12:33.135Z,2.13
2019-03-12T09:15:31.550Z,3.03
2019-03-12T09:18:19.805Z,2.00
2019-03-12T09:21:12.804Z,2.10
2019-03-12T09:24:07.280Z,2.17
2019-03-12T09:26:53.805Z,2.53
2019-03-12T09:29:36.902Z,2.33
2019-03-12T09:32:31.096Z,2.13
2019-03-12T09:35:21.652Z,2.17
2019-03-12T09:38:12.726Z,2.13
2019-03-12T09:41:02.251Z,2.00
2019-03-12T09:44:09.793Z,2.10
2019-03-12T09:47:05.712Z,2.37
2019-03-12T09:49:44.300Z,2.07
2019-03-12T09:52:33.926Z,2.42
2019-03-12T09:55:26.531Z,2.30
2019-03-12T09:58:20.353Z,2.37
2019-03-12T10:01:10.055Z,2.10
2019-03-12T10:03:59.397Z,1.83
2019-03-12T10:06:51.171Z,2.00
2019-03-12T10:09:46.001Z,1.97
2019-03-12T10:12:35.944Z,2.10
2019-03-12T10:15:28.908Z,1.90
2019-03-12T10:18:36.654Z,1.90
2019-03-12T10:21:24.395Z,1.90
2019-03-12T10:24:15.267Z,2.08
2019-03-12T10:26:56.310Z,1.90
2019-03-12T10:29:37.087Z,1.70
2019-03-12T10:32:20.277Z,2.53
2019-03-12T10:35:07.896Z,2.12
2019-03-12T10:37:50.987Z,2.10
2019-03-12T10:40:49.313Z,1.93
2019-03-12T10:43:38.149Z,2.12
2019-03-12T10:46:40.366Z,2.26
2019-03-12T10:49:11.715Z,2.20
2019-03-12T10:51:43.481Z,2.00
2019-03-12T10:54:18.045Z,2.10
2019-03-12T10:56:47.094Z,2.00
2019-03-12T10:59:20.009Z,2.30
2019-03-12T11:01:50.277Z,1.97
2019-03-12T11:04:22.621Z,2.00
2019-03-12T11:06:52.985Z,2.07
2019-03-12T11:09:29.966Z,2.10
2019-03-12T11:12:05.144Z,2.10
2019-03-12T11:14:37.425Z,2.15
2019-03-12T11:17:08.889Z,1.97
2019-03-12T11:19:39.530Z,2.00
2019-03-12T11:22:14.942Z,1.87
2019-03-12T11:24:45.560Z,2.17
2019-03-12T11:27:18.125Z,1.80
2019-03-12T11:29:52.501Z,2.10
2019-03-12T11:32:22.823Z,1.87
2019-03-12T11:34:53.564Z,1.80
2019-03-12T11:37:24.119Z,2.10
2019-03-12T11:39:56.448Z,1.70
2019-03-12T11:42:26.578Z,2.00
2019-03-12T11:44:57.116Z,1.65
2019-03-12T11:47:28.565Z,1.80
2019-03-12T11:50:02.517Z,1.70
2019-03-12T11:52:36.662Z,1.90
2019-03-12T11:55:08.522Z,1.67
2019-03-12T11:57:49.098Z,1.50
2019-03-12T12:00:31.720Z,1.80
2019-03-12T12:03:02.554Z,1.87
2019-03-12T12:05:35.982Z,2.33
2019-03-12T12:08:07.797Z,1.60
2019-03-12T12:10:42.966Z,1.80
2019-03-12T12:13:15.392Z,2.02
2019-03-12T12:15:46.046Z,1.57
2019-03-12T12:18:16.683Z,1.93
2019-03-12T12:20:46.947Z,1.60
2019-03-12T12:23:18.888Z,1.80
2019-03-12T12:25:49.209Z,1.45
2019-03-12T12:28:22.802Z,1.90
2019-03-12T12:30:53.422Z,1.60
2019-03-12T12:33:23.860Z,1.73
2019-03-12T12:35:54.462Z,1.65
2019-03-12T12:38:30.943Z,1.40
2019-03-12T12:41:14.004Z,1.52
2019-03-12T12:43:34.831Z,1.40
2019-03-12T12:46:05.159Z,1.95
2019-03-12T12:48:37.050Z,1.50
2019-03-12T12:51:09.796Z,1.38
2019-03-12T12:53:40.313Z,1.60
2019-03-12T12:56:10.927Z,1.70
2019-03-12T12:58:41.354Z,1.80
2019-03-12T13:01:11.871Z,1.80
2019-03-12T13:03:43.299Z,1.47
2019-03-12T13:06:13.491Z,1.57
2019-03-12T13:08:45.448Z,1.50
2019-03-12T13:11:16.075Z,1.35
2019-03-12T13:13:46.358Z,1.57
2019-03-12T13:16:24.933Z,1.55
2019-03-12T13:18:52.985Z,1.67
2019-03-12T13:21:23.538Z,1.50
2019-03-12T13:23:53.899Z,1.37
2019-03-12T13:26:25.611Z,1.70
2019-03-12T13:28:55.913Z,1.50
2019-03-12T13:31:36.451Z,1.57
2019-03-12T13:34:03.337Z,1.50
2019-03-12T13:36:35.499Z,1.50
2019-03-12T13:39:07.625Z,1.23
2019-03-12T13:41:41.235Z,1.57
2019-03-12T13:44:11.685Z,1.60
2019-03-12T13:46:44.642Z,1.60
2019-03-12T13:49:15.015Z,1.20
2019-03-12T13:51:45.962Z,1.40
2019-03-12T13:54:16.653Z,1.40
2019-03-12T13:56:47.209Z,1.50
2019-03-12T13:59:19.180Z,1.33
2019-03-12T14:01:50.012Z,1.40
2019-03-12T14:04:20.363Z,2.13
2019-03-12T14:06:50.667Z,1.60
2019-03-12T14:09:21.314Z,1.70
2019-03-12T14:11:51.666Z,1.43
2019-03-12T14:14:22.264Z,1.90
2019-03-12T14:16:52.684Z,1.67
2019-03-12T14:19:25.831Z,1.47
2019-03-12T14:21:56.337Z,1.43
2019-03-12T14:24:30.793Z,1.50
2019-03-12T14:27:01.063Z,1.30
2019-03-12T14:29:31.716Z,1.70
2019-03-12T14:32:02.089Z,1.30
2019-03-12T14:34:32.659Z,1.63
2019-03-12T14:37:03.348Z,1.33
2019-03-12T14:39:33.935Z,1.40
2019-03-12T14:42:06.255Z,1.73
2019-03-12T14:44:38.474Z,1.62
2019-03-12T14:47:10.786Z,1.67
2019-03-12T14:49:41.102Z,1.75
2019-03-12T14:52:17.076Z,1.40
2019-03-12T14:54:47.416Z,1.85
2019-03-12T14:57:18.711Z,1.67
2019-03-12T14:59:50.374Z,1.60
2019-03-12T15:02:26.461Z,1.47
2019-03-12T15:04:57.854Z,1.50
2019-03-12T15:07:30.801Z,1.83
2019-03-12T15:10:02.854Z,1.45
2019-03-12T15:12:39.559Z,1.30
2019-03-12T15:15:10.268Z,1.62
2019-03-12T15:17:43.043Z,1.73
2019-03-12T15:20:13.901Z,1.70
2019-03-12T15:22:49.107Z,1.60
2019-03-12T15:25:22.643Z,1.70
2019-03-12T15:27:55.190Z,1.30
2019-03-12T15:30:27.301Z,1.62
2019-03-12T15:32:58.165Z,1.37
2019-03-12T15:35:30.584Z,1.50
2019-03-12T15:38:04.272Z,1.40
2019-03-12T15:40:35.389Z,1.90
2019-03-12T15:43:05.726Z,1.97
2019-03-12T15:45:39.068Z,1.40
2019-03-12T15:48:21.549Z,1.33
2019-03-12T15:50:50.028Z,1.67
2019-03-12T15:53:22.803Z,1.30
2019-03-12T15:55:55.659Z,1.30
2019-03-12T15:58:25.156Z,1.20
2019-03-12T16:00:55.785Z,1.20
2019-03-12T16:03:26.458Z,1.53
2019-03-12T16:06:00.488Z,1.33
2019-03-12T16:08:33.388Z,1.57
2019-03-12T16:11:09.518Z,1.30
2019-03-12T16:13:46.612Z,1.13
2019-03-12T16:16:17.072Z,1.20
2019-03-12T16:18:51.033Z,1.03
2019-03-12T16:21:28.796Z,1.40
2019-03-12T16:24:00.831Z,1.50
2019-03-12T16:26:32.139Z,1.33
2019-03-12T16:29:06.866Z,1.22
2019-03-12T16:31:47.851Z,1.40
2019-03-12T16:34:18.376Z,1.30
2019-03-12T16:36:54.161Z,1.23
2019-03-12T16:39:25.985Z,1.40
2019-03-12T16:41:58.738Z,1.25
2019-03-12T16:44:29.463Z,1.37
2019-03-12T16:47:11.246Z,1.30
2019-03-12T16:49:46.303Z,0.95
2019-03-12T16:52:16.993Z,1.67
2019-03-12T16:54:51.785Z,1.23
2019-03-12T16:57:22.327Z,1.40
2019-03-12T16:59:54.090Z,1.70
2019-03-12T17:02:24.492Z,1.30
2019-03-12T17:04:55.122Z,1.20
2019-03-12T17:07:30.136Z,1.20
2019-03-12T17:10:00.891Z,1.30
2019-03-12T17:12:39.813Z,1.30
2019-03-12T17:15:11.930Z,1.30
2019-03-12T17:17:49.645Z,1.40
2019-03-12T17:20:30.401Z,1.20
2019-03-12T17:23:02.523Z,1.40
2019-03-12T17:25:44.405Z,1.40
2019-03-12T17:28:16.357Z,1.23
2019-03-12T17:30:46.755Z,1.13
2019-03-12T17:33:17.144Z,1.20
2019-03-12T17:35:50.546Z,1.10
2019-03-12T17:38:22.334Z,1.40
2019-03-12T17:41:03.378Z,1.25
2019-03-12T17:43:31.318Z,1.30
2019-03-12T17:46:02.042Z,1.30
2019-03-12T17:48:33.689Z,1.10
2019-03-12T17:51:04.344Z,1.60
2019-03-12T17:53:37.397Z,1.40
2019-03-12T17:56:08.286Z,1.13
2019-03-12T17:58:44.974Z,1.23
2019-03-12T18:01:14.128Z,1.37
2019-03-12T18:03:46.021Z,1.10
2019-03-12T18:06:18.172Z,1.40
2019-03-12T18:09:08.750Z,1.43
2019-03-12T18:11:41.839Z,1.52
2019-03-12T18:14:12.274Z,1.10
2019-03-12T18:16:44.537Z,1.40
2019-03-12T18:19:15.830Z,1.20
2019-03-12T18:21:52.690Z,1.55
2019-03-12T18:24:24.599Z,1.60
2019-03-12T18:26:59.275Z,1.30
2019-03-12T18:29:29.801Z,1.40
2019-03-12T18:32:04.727Z,1.20
2019-03-12T18:34:35.833Z,1.20
2019-03-12T18:37:13.872Z,1.47
2019-03-12T18:39:41.296Z,1.40
2019-03-12T18:42:14.514Z,1.57
2019-03-12T18:44:46.633Z,1.20
2019-03-12T18:47:32.560Z,1.30
2019-03-12T18:49:57.490Z,1.37
2019-03-12T18:52:31.473Z,1.23
2019-03-12T18:55:02.916Z,1.60
2019-03-12T18:57:34.315Z,1.30
2019-03-12T19:00:12.478Z,1.23
2019-03-12T19:02:49.044Z,1.40
2019-03-12T19:05:20.075Z,1.47
2019-03-12T19:07:57.964Z,1.50
2019-03-12T19:10:26.633Z,1.60
2019-03-12T19:13:46.614Z,1.20
2019-03-12T19:16:23.943Z,1.70
2019-03-12T19:18:55.034Z,1.40
2019-03-12T19:21:32.102Z,1.30
2019-03-12T19:24:03.201Z,1.32
2019-03-12T19:26:33.617Z,1.33
2019-03-12T19:29:06.156Z,1.30
2019-03-12T19:32:00.011Z,1.20
2019-03-12T19:34:41.386Z,1.33
2019-03-12T19:37:11.853Z,1.20
2019-03-12T19:39:42.567Z,1.47
2019-03-12T19:50:34.345Z,1.40
2019-03-12T19:53:05.041Z,1.57
2019-03-12T19:55:39.751Z,1.60
2019-03-12T19:58:10.176Z,1.50
2019-03-12T20:00:41.112Z,1.43
2019-03-12T20:03:15.077Z,1.33
2019-03-12T20:05:43.673Z,1.27
2019-03-12T20:08:14.391Z,1.70
2019-03-12T20:11:36.492Z,1.30
2019-03-12T20:14:49.507Z,1.43
2019-03-12T20:18:05.322Z,1.43
2019-03-12T20:21:20.283Z,1.47
2019-03-12T20:24:33.716Z,1.60
2019-03-12T20:27:48.795Z,1.60
2019-03-12T20:31:02.330Z,1.30
2019-03-12T20:34:13.866Z,3.10
2019-03-12T20:37:20.531Z,1.73
2019-03-12T20:40:44.093Z,1.57
2019-03-12T20:43:50.063Z,1.70
2019-03-12T20:47:13.398Z,1.87
2019-03-12T20:50:19.668Z,2.30
2019-03-12T20:53:26.437Z,1.80
2019-03-12T20:56:52.881Z,1.43
2019-03-12T21:00:13.437Z,1.30
2019-03-12T21:03:35.255Z,1.83
2019-03-12T21:06:36.797Z,1.57
2019-03-12T21:09:45.477Z,1.10
2019-03-12T21:12:57.154Z,0.80
2019-03-12T21:15:56.255Z,0.60
2019-03-12T21:19:27.058Z,0.50
2019-03-12T21:22:13.102Z,1.00
2019-03-12T21:25:28.369Z,1.20
2019-03-12T21:28:50.151Z,1.20
2019-03-12T21:31:20.884Z,1.90
2019-03-12T21:33:54.825Z,2.10
2019-03-12T21:36:31.008Z,1.90
2019-03-12T21:39:01.763Z,2.35
2019-03-12T21:41:33.651Z,2.67
2019-03-12T21:44:05.859Z,2.35
2019-03-12T21:46:37.961Z,2.40
2019-03-12T21:49:08.941Z,2.72
2019-03-12T21:51:39.251Z,3.00
2019-03-12T21:54:11.673Z,2.40
2019-03-12T21:56:42.012Z,2.43
2019-03-12T21:59:12.481Z,2.57
2019-03-12T22:01:42.834Z,2.60
2019-03-12T22:04:13.133Z,2.30
2019-03-12T22:06:44.728Z,2.50
2019-03-12T22:09:15.076Z,2.47
2019-03-12T22:11:48.253Z,3.00
2019-03-12T22:14:18.877Z,2.03
2019-03-12T22:16:52.401Z,2.60
2019-03-12T22:19:24.115Z,2.03
2019-03-12T22:22:13.962Z,2.70
2019-03-12T22:24:45.970Z,2.27
2019-03-12T22:27:18.478Z,2.37
2019-03-12T22:29:52.839Z,2.20
2019-03-12T22:32:25.135Z,2.30
2019-03-12T22:35:00.381Z,2.40
2019-03-12T22:37:32.331Z,2.00
2019-03-12T22:40:04.510Z,1.90
2019-03-12T22:42:34.859Z,2.80
2019-03-12T22:45:05.952Z,2.22
2019-03-12T22:47:50.171Z,2.37
2019-03-12T22:50:23.970Z,2.10
2019-03-12T22:52:54.260Z,2.60
2019-03-12T22:55:26.028Z,2.12
2019-03-12T22:57:56.462Z,2.20
2019-03-12T23:00:46.063Z,2.17
2019-03-12T23:03:34.689Z,2.27
2019-03-12T23:06:23.066Z,2.95
2019-03-12T23:09:11.528Z,4.93
2019-03-12T23:11:43.590Z,4.87
2019-03-12T23:14:14.675Z,6.30
2019-03-12T23:16:45.370Z,4.83
2019-03-12T23:19:15.898Z,5.03
2019-03-12T23:21:46.513Z,5.87
2019-03-12T23:24:16.905Z,7.17
2019-03-12T23:26:47.562Z,6.13
2019-03-12T23:29:19.952Z,5.70
2019-03-12T23:31:50.125Z,4.93
2019-03-12T23:34:20.423Z,5.80
2019-03-12T23:36:52.124Z,5.13
2019-03-12T23:39:22.452Z,4.67
2019-03-12T23:41:54.114Z,5.35
2019-03-12T23:44:25.416Z,5.53
2019-03-12T23:46:55.965Z,5.65
2019-03-12T23:49:26.369Z,5.77
2019-03-12T23:51:57.438Z,5.42
2019-03-12T23:54:28.370Z,6.03
2019-03-12T23:56:59.178Z,6.17
2019-03-12T23:59:29.656Z,6.92
